HGC5 weather

Otkritie Arena Heliport
Tushino, Moscow (city), Russia

Public forecast

Using degrees Celsius for public forecast. Weather courtesy of forecast.io.

Closest aviation weather report (METAR) to Otkritie Arena Heliport

Closest report is Sheremetyevo International Airport, 9.5 nm (17.6 km) N. Retrieved 2020/02/20 04:30 UTC (0 seconds ago):

UUEE 200430Z 22004MPS CAVOK 02/M00 Q1013 R24L/CLRD62 R24R/150057 NOSIG

Closest aviation forecast (TAF) to Otkritie Arena Heliport

Closest forecast is Sheremetyevo International Airport, 9.5 nm (17.6 km) N. Retrieved 2020-02-20 03:24 UTC (1 hour ago):

TAF TAF UUEE 200152Z 2003/2103 23006G11MPS 9999 BKN015 TX05/2012Z TNM00/2006Z